sensor_id;sensor_type;location;lat;lon;timestamp;pressure;altitude;pressure_sealevel;temperature;humidity
21109;BME280;10712;52.944;9.098;2023-05-10T00:01:30;100602.88;;;22.16;38.99
21109;BME280;10712;52.944;9.098;2023-05-10T00:03:56;100602.72;;;22.17;38.98
21109;BME280;10712;52.944;9.098;2023-05-10T00:06:21;100594.75;;;22.16;39.36
21109;BME280;10712;52.944;9.098;2023-05-10T00:08:47;100597.81;;;22.13;38.95
21109;BME280;10712;52.944;9.098;2023-05-10T00:11:13;100595.72;;;22.07;39.25
21109;BME280;10712;52.944;9.098;2023-05-10T00:13:40;100592.16;;;22.06;39.29
21109;BME280;10712;52.944;9.098;2023-05-10T00:16:06;100589.66;;;22.05;39.19
21109;BME280;10712;52.944;9.098;2023-05-10T00:18:31;100593.38;;;22.04;39.56
21109;BME280;10712;52.944;9.098;2023-05-10T00:20:57;100589.97;;;22.02;39.16
21109;BME280;10712;52.944;9.098;2023-05-10T00:23:23;100589.97;;;22.02;39.03
21109;BME280;10712;52.944;9.098;2023-05-10T00:25:49;100582.84;;;22.00;39.29
21109;BME280;10712;52.944;9.098;2023-05-10T00:28:15;100582.00;;;22.00;39.30
21109;BME280;10712;52.944;9.098;2023-05-10T00:30:40;100581.50;;;21.96;38.91
21109;BME280;10712;52.944;9.098;2023-05-10T00:33:06;100581.78;;;21.93;39.07
21109;BME280;10712;52.944;9.098;2023-05-10T00:35:32;100575.50;;;21.93;38.90
21109;BME280;10712;52.944;9.098;2023-05-10T00:37:58;100579.25;;;21.92;38.62
21109;BME280;10712;52.944;9.098;2023-05-10T00:40:24;100581.78;;;21.93;38.39
21109;BME280;10712;52.944;9.098;2023-05-10T00:42:54;100581.78;;;21.93;38.29
21109;BME280;10712;52.944;9.098;2023-05-10T00:45:21;100575.84;;;21.90;38.44
21109;BME280;10712;52.944;9.098;2023-05-10T00:47:47;100587.03;;;21.87;38.84
21109;BME280;10712;52.944;9.098;2023-05-10T00:50:14;100585.16;;;21.87;38.25
21109;BME280;10712;52.944;9.098;2023-05-10T00:52:41;100578.72;;;21.88;38.33
21109;BME280;10712;52.944;9.098;2023-05-10T00:55:09;100574.16;;;21.89;38.39
21109;BME280;10712;52.944;9.098;2023-05-10T00:57:36;100573.31;;;21.88;38.61
21109;BME280;10712;52.944;9.098;2023-05-10T01:00:03;100571.59;;;21.87;38.22
21109;BME280;10712;52.944;9.098;2023-05-10T01:02:29;100574.47;;;21.86;37.99
21109;BME280;10712;52.944;9.098;2023-05-10T01:04:56;100568.53;;;21.82;37.99
21109;BME280;10712;52.944;9.098;2023-05-10T01:07:22;100573.13;;;21.82;38.13
21109;BME280;10712;52.944;9.098;2023-05-10T01:09:48;100568.88;;;21.79;38.32
21109;BME280;10712;52.944;9.098;2023-05-10T01:12:15;100563.78;;;21.76;38.70
21109;BME280;10712;52.944;9.098;2023-05-10T01:14:41;100559.88;;;21.71;38.73
21109;BME280;10712;52.944;9.098;2023-05-10T01:17:08;100559.69;;;21.64;38.60
21109;BME280;10712;52.944;9.098;2023-05-10T01:19:35;100561.72;;;21.62;39.00
21109;BME280;10712;52.944;9.098;2023-05-10T01:31:08;100555.09;;;21.65;38.70
21109;BME280;10712;52.944;9.098;2023-05-10T01:33:47;100563.75;;;21.68;38.62
21109;BME280;10712;52.944;9.098;2023-05-10T01:39:30;100558.03;;;21.71;38.71
21109;BME280;10712;52.944;9.098;2023-05-10T01:42:23;100555.63;;;21.68;38.64
21109;BME280;10712;52.944;9.098;2023-05-10T01:47:45;100556.63;;;21.67;38.41
21109;BME280;10712;52.944;9.098;2023-05-10T01:50:27;100549.50;;;21.66;38.60
21109;BME280;10712;52.944;9.098;2023-05-10T01:52:57;100550.19;;;21.68;38.77
21109;BME280;10712;52.944;9.098;2023-05-10T01:55:29;100555.78;;;21.67;38.66
21109;BME280;10712;52.944;9.098;2023-05-10T01:58:07;100555.94;;;21.65;38.78
21109;BME280;10712;52.944;9.098;2023-05-10T02:00:35;100543.44;;;21.64;38.79
21109;BME280;10712;52.944;9.098;2023-05-10T02:03:08;100543.44;;;21.64;38.62
21109;BME280;10712;52.944;9.098;2023-05-10T02:05:38;100545.44;;;21.62;38.51
21109;BME280;10712;52.944;9.098;2023-05-10T02:08:06;100547.81;;;21.65;38.75
21109;BME280;10712;52.944;9.098;2023-05-10T02:10:36;100547.66;;;21.67;38.25
21109;BME280;10712;52.944;9.098;2023-05-10T02:13:03;100549.66;;;21.65;38.74
21109;BME280;10712;52.944;9.098;2023-05-10T02:15:32;100552.56;;;21.63;38.50
21109;BME280;10712;52.944;9.098;2023-05-10T02:18:02;100554.28;;;21.64;38.25
21109;BME280;10712;52.944;9.098;2023-05-10T02:20:30;100556.97;;;21.64;38.65
21109;BME280;10712;52.944;9.098;2023-05-10T02:22:58;100561.38;;;21.65;38.58
21109;BME280;10712;52.944;9.098;2023-05-10T02:25:25;100558.16;;;21.61;38.31
21109;BME280;10712;52.944;9.098;2023-05-10T02:27:55;100566.28;;;21.61;38.63
21109;BME280;10712;52.944;9.098;2023-05-10T02:30:22;100560.00;;;21.61;38.68
21109;BME280;10712;52.944;9.098;2023-05-10T02:32:51;100559.16;;;21.60;38.83
21109;BME280;10712;52.944;9.098;2023-05-10T02:35:17;100562.88;;;21.59;38.41
21109;BME280;10712;52.944;9.098;2023-05-10T02:37:46;100564.06;;;21.57;38.48
21109;BME280;10712;52.944;9.098;2023-05-10T02:40:15;100558.97;;;21.54;38.60
21109;BME280;10712;52.944;9.098;2023-05-10T02:42:44;100556.41;;;21.52;38.37
21109;BME280;10712;52.944;9.098;2023-05-10T02:45:17;100560.84;;;21.53;38.50
21109;BME280;10712;52.944;9.098;2023-05-10T02:47:43;100560.13;;;21.51;38.55
21109;BME280;10712;52.944;9.098;2023-05-10T02:50:10;100561.00;;;21.52;38.60
21109;BME280;10712;52.944;9.098;2023-05-10T02:52:51;100551.00;;;21.52;38.25
21109;BME280;10712;52.944;9.098;2023-05-10T02:55:25;100555.94;;;21.57;37.82
21109;BME280;10712;52.944;9.098;2023-05-10T02:57:58;100555.75;;;21.58;37.97
21109;BME280;10712;52.944;9.098;2023-05-10T03:00:25;100556.44;;;21.60;37.97
21109;BME280;10712;52.944;9.098;2023-05-10T03:02:51;100554.75;;;21.59;38.18
21109;BME280;10712;52.944;9.098;2023-05-10T03:05:17;100553.25;;;21.57;37.88
21109;BME280;10712;52.944;9.098;2023-05-10T03:07:44;100540.69;;;21.56;38.29
21109;BME280;10712;52.944;9.098;2023-05-10T03:10:11;100540.00;;;21.54;38.10
21109;BME280;10712;52.944;9.098;2023-05-10T03:13:21;100540.66;;;21.48;38.22
21109;BME280;10712;52.944;9.098;2023-05-10T03:16:12;100549.63;;;21.48;38.45
21109;BME280;10712;52.944;9.098;2023-05-10T03:19:30;100538.09;;;21.46;38.13
21109;BME280;10712;52.944;9.098;2023-05-10T03:21:37;100546.09;;;21.48;38.19
21109;BME280;10712;52.944;9.098;2023-05-10T03:24:08;100547.09;;;21.47;38.22
21109;BME280;10712;52.944;9.098;2023-05-10T03:26:39;100537.25;;;21.46;38.42
21109;BME280;10712;52.944;9.098;2023-05-10T03:29:14;100543.69;;;21.45;38.83
21109;BME280;10712;52.944;9.098;2023-05-10T03:31:41;100540.31;;;21.43;38.90
21109;BME280;10712;52.944;9.098;2023-05-10T03:34:07;100532.19;;;21.43;38.90
21109;BME280;10712;52.944;9.098;2023-05-10T03:36:33;100538.59;;;21.42;38.72
21109;BME280;10712;52.944;9.098;2023-05-10T03:39:00;100536.91;;;21.41;38.46
21109;BME280;10712;52.944;9.098;2023-05-10T03:41:26;100531.66;;;21.39;38.83
21109;BME280;10712;52.944;9.098;2023-05-10T03:43:53;100536.75;;;21.42;38.86
21109;BME280;10712;52.944;9.098;2023-05-10T03:46:19;100531.50;;;21.41;39.08
21109;BME280;10712;52.944;9.098;2023-05-10T03:48:45;100537.91;;;21.40;39.13
21109;BME280;10712;52.944;9.098;2023-05-10T03:51:11;100544.34;;;21.39;39.10
21109;BME280;10712;52.944;9.098;2023-05-10T03:53:37;100541.28;;;21.34;39.35
21109;BME280;10712;52.944;9.098;2023-05-10T03:56:03;100535.53;;;21.37;39.42
21109;BME280;10712;52.944;9.098;2023-05-10T03:58:29;100527.38;;;21.37;39.86
21109;BME280;10712;52.944;9.098;2023-05-10T04:00:55;100534.16;;;21.33;39.79
21109;BME280;10712;52.944;9.098;2023-05-10T04:03:21;100535.16;;;21.32;39.76
21109;BME280;10712;52.944;9.098;2023-05-10T04:05:47;100537.88;;;21.32;39.97
21109;BME280;10712;52.944;9.098;2023-05-10T04:08:13;100540.75;;;21.30;39.99
21109;BME280;10712;52.944;9.098;2023-05-10T04:10:40;100540.75;;;21.30;40.37
21109;BME280;10712;52.944;9.098;2023-05-10T04:13:06;100537.03;;;21.31;40.30
21109;BME280;10712;52.944;9.098;2023-05-10T04:15:32;100533.31;;;21.32;40.59
21109;BME280;10712;52.944;9.098;2023-05-10T04:17:58;100539.59;;;21.33;40.75
21109;BME280;10712;52.944;9.098;2023-05-10T04:20:23;100540.28;;;21.35;40.97
21109;BME280;10712;52.944;9.098;2023-05-10T04:22:49;100545.69;;;21.35;40.71
21109;BME280;10712;52.944;9.098;2023-05-10T04:25:15;100541.13;;;21.35;41.15
21109;BME280;10712;52.944;9.098;2023-05-10T04:27:41;100538.88;;;21.31;41.31
21109;BME280;10712;52.944;9.098;2023-05-10T04:30:08;100541.59;;;21.31;41.38
21109;BME280;10712;52.944;9.098;2023-05-10T04:32:33;100549.06;;;21.29;41.81
21109;BME280;10712;52.944;9.098;2023-05-10T04:34:59;100543.09;;;21.25;42.00
21109;BME280;10712;52.944;9.098;2023-05-10T04:37:25;100543.59;;;21.20;42.25
21109;BME280;10712;52.944;9.098;2023-05-10T04:39:51;100551.72;;;21.20;42.43
21109;BME280;10712;52.944;9.098;2023-05-10T04:42:17;100543.22;;;21.15;42.72
21109;BME280;10712;52.944;9.098;2023-05-10T04:44:43;100543.53;;;21.12;43.04
21109;BME280;10712;52.944;9.098;2023-05-10T04:47:09;100548.63;;;21.15;42.94
21109;BME280;10712;52.944;9.098;2023-05-10T04:49:35;100542.53;;;21.13;43.50
21109;BME280;10712;52.944;9.098;2023-05-10T04:52:00;100542.53;;;21.13;43.58
21109;BME280;10712;52.944;9.098;2023-05-10T04:54:26;100550.66;;;21.13;44.02
21109;BME280;10712;52.944;9.098;2023-05-10T04:56:52;100556.06;;;21.13;44.22
21109;BME280;10712;52.944;9.098;2023-05-10T04:59:18;100559.78;;;21.12;44.67
21109;BME280;10712;52.944;9.098;2023-05-10T05:01:43;100565.34;;;21.11;45.17
21109;BME280;10712;52.944;9.098;2023-05-10T05:04:09;100562.44;;;21.04;45.23
21109;BME280;10712;52.944;9.098;2023-05-10T05:06:35;100572.75;;;21.01;45.50
21109;BME280;10712;52.944;9.098;2023-05-10T05:09:01;100568.56;;;21.06;45.89
21109;BME280;10712;52.944;9.098;2023-05-10T05:11:27;100564.69;;;21.09;45.85
21109;BME280;10712;52.944;9.098;2023-05-10T05:13:52;100571.25;;;21.06;46.10
21109;BME280;10712;52.944;9.098;2023-05-10T05:16:18;100570.25;;;21.07;46.58
21109;BME280;10712;52.944;9.098;2023-05-10T05:18:44;100572.44;;;21.04;46.81
21109;BME280;10712;52.944;9.098;2023-05-10T05:21:17;100573.28;;;21.04;47.09
21109;BME280;10712;52.944;9.098;2023-05-10T05:23:43;100583.97;;;21.06;46.99
21109;BME280;10712;52.944;9.098;2023-05-10T05:26:09;100578.19;;;21.01;47.38
21109;BME280;10712;52.944;9.098;2023-05-10T05:28:35;100580.34;;;20.97;47.57
21109;BME280;10712;52.944;9.098;2023-05-10T05:31:04;100575.78;;;20.98;47.21
21109;BME280;10712;52.944;9.098;2023-05-10T05:33:31;100588.16;;;21.00;47.55
21109;BME280;10712;52.944;9.098;2023-05-10T05:36:01;100605.78;;;21.04;47.44
21109;BME280;10712;52.944;9.098;2023-05-10T05:38:27;100619.81;;;21.00;47.75
21109;BME280;10712;52.944;9.098;2023-05-10T05:40:53;100604.56;;;20.99;47.80
21109;BME280;10712;52.944;9.098;2023-05-10T05:43:19;100620.97;;;20.97;47.96
21109;BME280;10712;52.944;9.098;2023-05-10T05:45:44;100616.19;;;20.91;48.13
21109;BME280;10712;52.944;9.098;2023-05-10T05:48:10;100613.34;;;20.93;48.41
21109;BME280;10712;52.944;9.098;2023-05-10T05:50:36;100616.19;;;20.91;48.67
21109;BME280;10712;52.944;9.098;2023-05-10T05:53:02;100607.38;;;20.89;48.56
21109;BME280;10712;52.944;9.098;2023-05-10T05:55:28;100609.41;;;20.87;48.58
21109;BME280;10712;52.944;9.098;2023-05-10T05:57:55;100611.13;;;20.88;48.97
21109;BME280;10712;52.944;9.098;2023-05-10T06:00:21;100605.31;;;20.83;48.94
21109;BME280;10712;52.944;9.098;2023-05-10T06:02:47;100602.94;;;20.80;49.23
21109;BME280;10712;52.944;9.098;2023-05-10T06:05:13;100612.75;;;20.81;49.31
21109;BME280;10712;52.944;9.098;2023-05-10T06:07:39;100626.50;;;20.88;49.35
21109;BME280;10712;52.944;9.098;2023-05-10T06:10:08;100627.03;;;20.91;49.99
21109;BME280;10712;52.944;9.098;2023-05-10T06:12:35;100637.16;;;20.89;49.92
21109;BME280;10712;52.944;9.098;2023-05-10T06:15:01;100645.28;;;20.89;49.93
21109;BME280;10712;52.944;9.098;2023-05-10T06:17:26;100637.78;;;20.83;50.52
21109;BME280;10712;52.944;9.098;2023-05-10T06:19:53;100643.38;;;20.81;50.60
21109;BME280;10712;52.944;9.098;2023-05-10T06:22:18;100655.03;;;20.82;50.55
21109;BME280;10712;52.944;9.098;2023-05-10T06:24:44;100656.13;;;20.89;50.78
21109;BME280;10712;52.944;9.098;2023-05-10T06:27:10;100658.47;;;20.84;50.83
21109;BME280;10712;52.944;9.098;2023-05-10T06:29:36;100665.72;;;20.83;50.53
21109;BME280;10712;52.944;9.098;2023-05-10T06:32:01;100661.66;;;20.79;50.95
21109;BME280;10712;52.944;9.098;2023-05-10T06:34:27;100666.00;;;20.72;51.42
21109;BME280;10712;52.944;9.098;2023-05-10T06:36:53;100675.97;;;20.72;51.49
21109;BME280;10712;52.944;9.098;2023-05-10T06:39:19;100672.25;;;20.73;51.77
21109;BME280;10712;52.944;9.098;2023-05-10T06:41:45;100676.44;;;20.67;51.82
21109;BME280;10712;52.944;9.098;2023-05-10T06:44:11;100673.19;;;20.64;52.06
21109;BME280;10712;52.944;9.098;2023-05-10T06:46:36;100672.94;;;20.57;52.39
21109;BME280;10712;52.944;9.098;2023-05-10T06:49:02;100675.97;;;20.54;52.51
21109;BME280;10712;52.944;9.098;2023-05-10T06:51:28;100679.50;;;20.55;52.94
21109;BME280;10712;52.944;9.098;2023-05-10T06:53:54;100677.84;;;20.54;53.08
21109;BME280;10712;52.944;9.098;2023-05-10T06:56:20;100683.56;;;20.51;52.87
21109;BME280;10712;52.944;9.098;2023-05-10T06:58:48;100678.13;;;20.51;52.96
21109;BME280;10712;52.944;9.098;2023-05-10T07:01:14;100685.63;;;20.57;52.97
21109;BME280;10712;52.944;9.098;2023-05-10T07:03:39;100690.19;;;20.56;52.90
21109;BME280;10712;52.944;9.098;2023-05-10T07:06:06;100692.97;;;20.64;52.89
21109;BME280;10712;52.944;9.098;2023-05-10T07:08:34;100695.47;;;20.58;52.94
21109;BME280;10712;52.944;9.098;2023-05-10T07:11:02;100700.31;;;20.54;53.36
21109;BME280;10712;52.944;9.098;2023-05-10T07:13:32;100696.59;;;20.55;53.36
21109;BME280;10712;52.944;9.098;2023-05-10T07:15:59;100705.72;;;20.54;53.71
21109;BME280;10712;52.944;9.098;2023-05-10T07:18:26;100701.16;;;20.55;53.64
21109;BME280;10712;52.944;9.098;2023-05-10T07:20:52;100701.16;;;20.55;54.04
21109;BME280;10712;52.944;9.098;2023-05-10T07:23:18;100698.69;;;20.61;53.79
21109;BME280;10712;52.944;9.098;2023-05-10T07:25:49;100705.50;;;20.65;53.44
21109;BME280;10712;52.944;9.098;2023-05-10T07:28:17;100705.66;;;20.64;53.58
21109;BME280;10712;52.944;9.098;2023-05-10T07:30:43;100707.03;;;20.68;53.58
21109;BME280;10712;52.944;9.098;2023-05-10T07:33:11;100708.75;;;20.69;53.92
21109;BME280;10712;52.944;9.098;2023-05-10T07:35:38;100715.88;;;20.70;53.98
21109;BME280;10712;52.944;9.098;2023-05-10T07:38:04;100719.28;;;20.72;54.21
21109;BME280;10712;52.944;9.098;2023-05-10T07:40:31;100715.25;;;20.76;54.22
21109;BME280;10712;52.944;9.098;2023-05-10T07:42:56;100713.53;;;20.75;54.40
21109;BME280;10712;52.944;9.098;2023-05-10T07:45:23;100716.41;;;20.91;54.01
21109;BME280;10712;52.944;9.098;2023-05-10T07:47:49;100716.88;;;20.69;54.76
21109;BME280;10712;52.944;9.098;2023-05-10T07:50:15;100720.66;;;20.76;54.41
21109;BME280;10712;52.944;9.098;2023-05-10T07:52:41;100722.75;;;20.82;54.73
21109;BME280;10712;52.944;9.098;2023-05-10T07:55:08;100717.41;;;20.90;54.81
21109;BME280;10712;52.944;9.098;2023-05-10T07:57:34;100718.19;;;21.00;54.62
21109;BME280;10712;52.944;9.098;2023-05-10T08:00:00;100714.47;;;21.01;54.64
21109;BME280;10712;52.944;9.098;2023-05-10T08:02:26;100717.84;;;21.03;54.98
21109;BME280;10712;52.944;9.098;2023-05-10T08:04:52;100726.66;;;21.05;55.08
21109;BME280;10712;52.944;9.098;2023-05-10T08:07:18;100725.53;;;21.08;55.71
21109;BME280;10712;52.944;9.098;2023-05-10T08:09:44;100730.16;;;21.15;55.77
21109;BME280;10712;52.944;9.098;2023-05-10T08:12:10;100735.13;;;21.20;55.68
21109;BME280;10712;52.944;9.098;2023-05-10T08:14:36;100735.97;;;21.20;55.68
21109;BME280;10712;52.944;9.098;2023-05-10T08:17:04;100735.34;;;21.27;56.02
21109;BME280;10712;52.944;9.098;2023-05-10T08:19:30;100751.28;;;21.30;56.06
21109;BME280;10712;52.944;9.098;2023-05-10T08:21:56;100746.25;;;21.35;56.17
21109;BME280;10712;52.944;9.098;2023-05-10T08:24:22;100749.31;;;21.40;56.50
21109;BME280;10712;52.944;9.098;2023-05-10T08:26:48;100737.13;;;21.44;56.56
21109;BME280;10712;52.944;9.098;2023-05-10T08:29:15;100748.38;;;21.49;56.51
21109;BME280;10712;52.944;9.098;2023-05-10T08:31:41;100750.09;;;21.58;56.61
21109;BME280;10712;52.944;9.098;2023-05-10T08:34:07;100747.78;;;21.63;56.91
21109;BME280;10712;52.944;9.098;2023-05-10T08:36:33;100756.59;;;21.65;56.96
21109;BME280;10712;52.944;9.098;2023-05-10T08:38:59;100753.94;;;21.73;57.10
21109;BME280;10712;52.944;9.098;2023-05-10T08:41:25;100755.31;;;21.77;57.37
21109;BME280;10712;52.944;9.098;2023-05-10T08:43:54;100751.25;;;21.81;57.13
21109;BME280;10712;52.944;9.098;2023-05-10T08:46:22;100762.31;;;21.88;57.52
21109;BME280;10712;52.944;9.098;2023-05-10T08:48:50;100752.00;;;21.91;57.64
21109;BME280;10712;52.944;9.098;2023-05-10T08:51:24;100764.09;;;21.97;57.72
21109;BME280;10712;52.944;9.098;2023-05-10T08:53:53;100765.31;;;22.03;57.57
21109;BME280;10712;52.944;9.098;2023-05-10T08:56:19;100764.34;;;22.12;57.51
21109;BME280;10712;52.944;9.098;2023-05-10T08:58:46;100774.69;;;22.16;57.78
21109;BME280;10712;52.944;9.098;2023-05-10T09:01:15;100763.34;;;22.21;58.19
21109;BME280;10712;52.944;9.098;2023-05-10T09:03:42;100771.19;;;22.32;58.02
21109;BME280;10712;52.944;9.098;2023-05-10T09:06:11;100768.50;;;22.40;58.11
21109;BME280;10712;52.944;9.098;2023-05-10T09:08:39;100786.16;;;22.44;58.15
21109;BME280;10712;52.944;9.098;2023-05-10T09:11:06;100785.19;;;22.53;57.86
21109;BME280;10712;52.944;9.098;2023-05-10T09:13:32;100781.41;;;22.54;58.08
21109;BME280;10712;52.944;9.098;2023-05-10T09:15:59;100783.66;;;22.59;58.28
21109;BME280;10712;52.944;9.098;2023-05-10T09:18:25;100788.91;;;22.68;58.13
21109;BME280;10712;52.944;9.098;2023-05-10T09:20:51;100786.63;;;22.73;57.94
21109;BME280;10712;52.944;9.098;2023-05-10T09:23:17;100798.84;;;22.77;58.21
21109;BME280;10712;52.944;9.098;2023-05-10T09:25:43;100795.78;;;22.81;58.08
21109;BME280;10712;52.944;9.098;2023-05-10T09:28:09;100800.88;;;22.84;57.94
21109;BME280;10712;52.944;9.098;2023-05-10T09:30:35;100804.97;;;22.88;58.01
21109;BME280;10712;52.944;9.098;2023-05-10T09:33:02;100799.88;;;22.85;58.23
21109;BME280;10712;52.944;9.098;2023-05-10T09:35:30;100807.69;;;22.96;58.04
21109;BME280;10712;52.944;9.098;2023-05-10T09:38:02;100805.66;;;22.98;58.08
21109;BME280;10712;52.944;9.098;2023-05-10T09:40:29;100809.06;;;23.00;58.05
21109;BME280;10712;52.944;9.098;2023-05-10T09:43:02;100809.06;;;23.00;57.91
21109;BME280;10712;52.944;9.098;2023-05-10T09:45:33;100802.78;;;22.99;57.94
21109;BME280;10712;52.944;9.098;2023-05-10T09:48:01;100811.25;;;23.04;57.54
21109;BME280;10712;52.944;9.098;2023-05-10T09:50:29;100810.09;;;23.07;57.68
21109;BME280;10712;52.944;9.098;2023-05-10T09:53:03;100815.16;;;23.10;57.20
21109;BME280;10712;52.944;9.098;2023-05-10T09:55:39;100813.50;;;23.09;57.40
21109;BME280;10712;52.944;9.098;2023-05-10T09:58:05;100816.22;;;23.09;57.32
21109;BME280;10712;52.944;9.098;2023-05-10T10:00:40;100810.59;;;23.10;57.16
21109;BME280;10712;52.944;9.098;2023-05-10T10:03:15;100815.34;;;23.16;57.26
21109;BME280;10712;52.944;9.098;2023-05-10T10:05:43;100821.31;;;23.20;56.92
21109;BME280;10712;52.944;9.098;2023-05-10T10:08:09;100831.84;;;23.23;57.09
21109;BME280;10712;52.944;9.098;2023-05-10T10:10:35;100821.81;;;23.24;57.06
21109;BME280;10712;52.944;9.098;2023-05-10T10:13:02;100830.47;;;23.27;56.54
21109;BME280;10712;52.944;9.098;2023-05-10T10:15:28;100829.47;;;23.36;56.47
21109;BME280;10712;52.944;9.098;2023-05-10T10:17:54;100821.97;;;23.38;56.58
21109;BME280;10712;52.944;9.098;2023-05-10T10:20:22;100823.38;;;23.50;55.98
21109;BME280;10712;52.944;9.098;2023-05-10T10:22:49;100832.00;;;23.46;56.33
21109;BME280;10712;52.944;9.098;2023-05-10T10:25:17;100829.44;;;23.44;55.75
21109;BME280;10712;52.944;9.098;2023-05-10T10:30:45;100829.81;;;23.66;55.33
21109;BME280;10712;52.944;9.098;2023-05-10T10:35:45;100834.56;;;23.80;54.19
21109;BME280;10712;52.944;9.098;2023-05-10T10:38:13;100836.78;;;23.84;54.08
21109;BME280;10712;52.944;9.098;2023-05-10T10:40:38;100834.38;;;23.89;54.13
21109;BME280;10712;52.944;9.098;2023-05-10T10:43:25;100834.19;;;23.99;54.01
21109;BME280;10712;52.944;9.098;2023-05-10T10:46:16;100834.53;;;23.96;53.88
21109;BME280;10712;52.944;9.098;2023-05-10T10:49:08;100836.56;;;23.86;53.76
21109;BME280;10712;52.944;9.098;2023-05-10T10:51:38;100834.53;;;23.88;53.92
21109;BME280;10712;52.944;9.098;2023-05-10T10:54:11;100840.84;;;23.80;54.11
21109;BME280;10712;52.944;9.098;2023-05-10T10:56:38;100831.19;;;23.78;53.89
21109;BME280;10712;52.944;9.098;2023-05-10T10:59:03;100831.50;;;23.75;53.97
21109;BME280;10712;52.944;9.098;2023-05-10T11:01:35;100839.34;;;23.70;54.33
21109;BME280;10712;52.944;9.098;2023-05-10T11:06:32;100833.59;;;23.57;54.62
21109;BME280;10712;52.944;9.098;2023-05-10T11:08:59;100839.50;;;23.60;54.42
21109;BME280;10712;52.944;9.098;2023-05-10T11:11:25;100847.19;;;23.65;54.75
21109;BME280;10712;52.944;9.098;2023-05-10T11:13:51;100844.78;;;23.53;54.79
21109;BME280;10712;52.944;9.098;2023-05-10T11:16:22;100846.31;;;23.56;54.83
21109;BME280;10712;52.944;9.098;2023-05-10T11:19:07;100850.56;;;23.75;55.04
21109;BME280;10712;52.944;9.098;2023-05-10T11:24:29;100847.81;;;23.91;54.36
21109;BME280;10712;52.944;9.098;2023-05-10T11:26:56;100849.53;;;23.92;54.41
21109;BME280;10712;52.944;9.098;2023-05-10T11:29:22;100847.97;;;23.98;54.67
21109;BME280;10712;52.944;9.098;2023-05-10T11:31:50;100855.97;;;23.99;54.39
21109;BME280;10712;52.944;9.098;2023-05-10T11:34:32;100847.44;;;23.94;53.67
21109;BME280;10712;52.944;9.098;2023-05-10T11:37:01;100857.31;;;24.03;53.04
21109;BME280;10712;52.944;9.098;2023-05-10T11:39:31;100854.75;;;24.10;53.09
21109;BME280;10712;52.944;9.098;2023-05-10T11:41:58;100858.66;;;24.07;53.04
21109;BME280;10712;52.944;9.098;2023-05-10T11:44:30;100861.34;;;24.15;52.91
21109;BME280;10712;52.944;9.098;2023-05-10T11:47:00;100861.03;;;24.18;53.26
21109;BME280;10712;52.944;9.098;2023-05-10T11:49:26;100869.53;;;24.23;53.24
21109;BME280;10712;52.944;9.098;2023-05-10T11:51:52;100857.78;;;24.23;52.71
21109;BME280;10712;52.944;9.098;2023-05-10T11:54:17;100860.34;;;24.24;52.80
21109;BME280;10712;52.944;9.098;2023-05-10T11:56:43;100864.41;;;24.28;52.77
21109;BME280;10712;52.944;9.098;2023-05-10T11:59:10;100859.44;;;24.40;52.87
21109;BME280;10712;52.944;9.098;2023-05-10T12:01:36;100864.63;;;24.58;53.10
21109;BME280;10712;52.944;9.098;2023-05-10T12:04:02;100870.06;;;24.66;53.00
21109;BME280;10712;52.944;9.098;2023-05-10T12:06:31;100876.50;;;24.73;52.88
21109;BME280;10712;52.944;9.098;2023-05-10T12:08:58;100882.13;;;24.71;52.56
21109;BME280;10712;52.944;9.098;2023-05-10T12:11:26;100880.25;;;24.72;52.10
21109;BME280;10712;52.944;9.098;2023-05-10T12:13:53;100891.84;;;24.66;51.91
21109;BME280;10712;52.944;9.098;2023-05-10T12:16:22;100885.75;;;24.56;51.87
21109;BME280;10712;52.944;9.098;2023-05-10T12:18:52;100888.88;;;24.45;52.39
21109;BME280;10712;52.944;9.098;2023-05-10T12:21:20;100892.97;;;24.41;52.48
21109;BME280;10712;52.944;9.098;2023-05-10T12:23:52;100894.16;;;24.46;52.84
21109;BME280;10712;52.944;9.098;2023-05-10T12:26:21;100896.66;;;24.56;52.83
21109;BME280;10712;52.944;9.098;2023-05-10T12:28:47;100894.56;;;24.66;52.50
21109;BME280;10712;52.944;9.098;2023-05-10T12:31:13;100899.19;;;24.57;52.37
21109;BME280;10712;52.944;9.098;2023-05-10T12:33:43;100896.66;;;24.56;52.56
21109;BME280;10712;52.944;9.098;2023-05-10T12:36:12;100902.59;;;24.59;52.76
21109;BME280;10712;52.944;9.098;2023-05-10T12:38:41;100896.94;;;24.69;52.87
21109;BME280;10712;52.944;9.098;2023-05-10T12:41:11;100901.34;;;24.70;52.97
21109;BME280;10712;52.944;9.098;2023-05-10T12:43:38;100899.72;;;24.61;53.05
21109;BME280;10712;52.944;9.098;2023-05-10T12:46:06;100910.31;;;24.48;52.79
21109;BME280;10712;52.944;9.098;2023-05-10T12:48:32;100915.78;;;24.48;52.54
21109;BME280;10712;52.944;9.098;2023-05-10T12:51:00;100919.38;;;24.32;52.81
21109;BME280;10712;52.944;9.098;2023-05-10T12:53:26;100928.41;;;24.16;52.99
21109;BME280;10712;52.944;9.098;2023-05-10T12:55:52;100934.03;;;23.90;53.86
21109;BME280;10712;52.944;9.098;2023-05-10T12:58:19;100939.31;;;23.92;54.00
21109;BME280;10712;52.944;9.098;2023-05-10T13:00:45;100940.66;;;23.88;54.20
21109;BME280;10712;52.944;9.098;2023-05-10T13:03:11;100944.06;;;23.90;54.23
21109;BME280;10712;52.944;9.098;2023-05-10T13:05:38;100940.34;;;23.99;54.17
21109;BME280;10712;52.944;9.098;2023-05-10T13:08:04;100944.41;;;24.11;54.91
21109;BME280;10712;52.944;9.098;2023-05-10T13:10:31;100947.81;;;24.05;55.44
21109;BME280;10712;52.944;9.098;2023-05-10T13:12:58;100952.91;;;24.08;55.67
21109;BME280;10712;52.944;9.098;2023-05-10T13:15:25;100945.28;;;24.20;55.14
21109;BME280;10712;52.944;9.098;2023-05-10T13:17:53;100945.75;;;24.40;54.56
21109;BME280;10712;52.944;9.098;2023-05-10T13:20:19;100948.09;;;24.51;54.54